createdAt,value
2023-01-11T00:02:01.845Z,97796.53
2023-01-11T00:07:03.729Z,97791.53
2023-01-11T00:12:05.418Z,97790.31
2023-01-11T00:17:07.074Z,97774.56
2023-01-11T00:22:08.664Z,97766.44
2023-01-11T00:27:10.270Z,97764.00
2023-01-11T00:32:11.981Z,97768.19
2023-01-11T00:37:13.617Z,97747.97
2023-01-11T00:42:33.778Z,97737.41
2023-01-11T00:47:53.945Z,97746.75
2023-01-11T00:52:55.652Z,97740.94
2023-01-11T00:57:58.042Z,97741.31
2023-01-11T01:02:59.685Z,97737.47
2023-01-11T01:08:01.388Z,97729.91
2023-01-11T01:13:21.600Z,97729.25
2023-01-11T01:18:23.364Z,97729.25
2023-01-11T01:23:24.990Z,97716.06
2023-01-11T01:28:26.777Z,97708.88
2023-01-11T01:33:28.394Z,97702.91
2023-01-11T01:38:30.034Z,97684.22
2023-01-11T01:43:54.938Z,97685.84
2023-01-11T01:49:03.990Z,97682.88
2023-01-11T01:54:12.123Z,97677.84
2023-01-11T01:59:17.159Z,97677.72
2023-01-11T02:04:41.549Z,97667.00
2023-01-11T02:09:59.088Z,97655.34
2023-01-11T02:15:01.120Z,97653.34
2023-01-11T02:20:08.334Z,97639.34
2023-01-11T02:25:52.796Z,97638.91
2023-01-11T02:31:16.288Z,97623.25
2023-01-11T02:36:44.453Z,97642.75
2023-01-11T02:42:27.467Z,97634.53
2023-01-11T02:47:43.661Z,97632.84
2023-01-11T02:52:55.330Z,97617.88
2023-01-11T02:58:01.000Z,97604.44
2023-01-11T03:03:13.603Z,97597.41
2023-01-11T03:08:44.604Z,97593.34
2023-01-11T03:14:06.938Z,97586.06
2023-01-11T03:19:23.703Z,97580.94
2023-01-11T03:24:36.572Z,97577.91
2023-01-11T03:29:59.854Z,97570.22
2023-01-11T03:35:19.292Z,97565.53
2023-01-11T03:40:29.498Z,97575.09
2023-01-11T03:45:34.782Z,97565.25
2023-01-11T03:50:36.511Z,97562.03
2023-01-11T03:55:44.933Z,97552.81
2023-01-11T04:00:48.367Z,97540.22
2023-01-11T04:05:53.442Z,97535.81
2023-01-11T04:10:55.267Z,97531.03
2023-01-11T04:15:56.965Z,97535.94
2023-01-11T04:20:59.397Z,97529.91
2023-01-11T04:26:00.969Z,97529.25
2023-01-11T04:31:02.775Z,97525.22
2023-01-11T04:36:09.962Z,97516.31
2023-01-11T04:41:30.123Z,97511.06
2023-01-11T04:46:31.732Z,97513.75
2023-01-11T04:51:33.339Z,97515.59
2023-01-11T04:56:36.283Z,97523.44
2023-01-11T05:01:37.882Z,97510.16
2023-01-11T05:06:39.446Z,97512.47
2023-01-11T05:11:41.536Z,97516.22
2023-01-11T05:16:43.503Z,97511.56
2023-01-11T05:21:45.141Z,97502.09
2023-01-11T05:26:48.370Z,97505.31
2023-01-11T05:31:50.246Z,97506.13
2023-01-11T05:36:51.880Z,97506.47
2023-01-11T05:41:53.494Z,97503.88
2023-01-11T05:46:55.086Z,97500.84
2023-01-11T05:51:56.742Z,97487.00
2023-01-11T05:56:58.343Z,97489.69
2023-01-11T06:02:00.129Z,97486.59
2023-01-11T06:07:01.774Z,97488.63
2023-01-11T06:12:03.561Z,97481.59
2023-01-11T06:17:05.135Z,97480.28
2023-01-11T06:22:06.780Z,97485.69
2023-01-11T06:27:08.387Z,97475.44
2023-01-11T06:32:10.174Z,97482.44
2023-01-11T06:37:12.015Z,97481.84
2023-01-11T06:42:13.620Z,97484.91
2023-01-11T06:47:15.214Z,97482.13
2023-01-11T06:52:16.936Z,97484.88
2023-01-11T06:57:18.655Z,97489.88
2023-01-11T07:02:20.290Z,97496.50
2023-01-11T07:07:21.939Z,97499.56
2023-01-11T07:12:23.595Z,97481.81
2023-01-11T07:17:25.260Z,97482.56
2023-01-11T07:22:27.402Z,97474.47
2023-01-11T07:27:29.096Z,97464.59
2023-01-11T07:32:30.731Z,97461.84
2023-01-11T07:37:32.774Z,97458.16
2023-01-11T07:42:52.938Z,97467.41
2023-01-11T07:47:54.705Z,97472.09
2023-01-11T07:52:56.682Z,97476.16
2023-01-11T07:57:58.991Z,97466.50
2023-01-11T08:03:00.973Z,97457.59
2023-01-11T08:08:03.150Z,97458.91
2023-01-11T08:13:23.541Z,97453.75
2023-01-11T08:18:25.569Z,97455.19
2023-01-11T08:23:27.421Z,97449.38
2023-01-11T08:28:29.279Z,97447.13
2023-01-11T08:33:31.109Z,97453.91
2023-01-11T08:38:32.944Z,97452.94
2023-01-11T08:43:34.721Z,97457.28
2023-01-11T08:48:36.897Z,97452.09
2023-01-11T08:53:38.801Z,97442.06
2023-01-11T08:58:40.581Z,97438.31
2023-01-11T09:03:42.392Z,97440.38
2023-01-11T09:08:44.326Z,97432.56
2023-01-11T09:13:46.136Z,97421.97
2023-01-11T09:18:47.975Z,97421.75
2023-01-11T09:23:49.820Z,97416.41
2023-01-11T09:28:51.779Z,97415.41
2023-01-11T09:33:54.052Z,97408.06
2023-01-11T09:38:57.876Z,97403.22
2023-01-11T09:44:15.996Z,97413.88
2023-01-11T09:49:31.413Z,97403.00
2023-01-11T09:54:33.909Z,97395.00
2023-01-11T09:59:48.596Z,97397.06
2023-01-11T10:05:29.764Z,97389.53
2023-01-11T10:18:26.028Z,97400.25
2023-01-11T10:21:44.187Z,97389.81
2023-01-11T10:26:48.633Z,97385.81
2023-01-11T10:32:02.918Z,97369.81
2023-01-11T10:37:22.833Z,97363.63
2023-01-11T10:42:30.084Z,97359.59
2023-01-11T10:47:42.413Z,97358.25
2023-01-11T10:52:51.578Z,97350.28
2023-01-11T10:58:24.395Z,97344.41
2023-01-11T11:03:38.519Z,97351.63
2023-01-11T11:09:09.420Z,97354.00
2023-01-11T11:14:39.026Z,97329.53
2023-01-11T11:19:41.984Z,97321.72
2023-01-11T11:24:48.262Z,97317.69
2023-01-11T11:29:53.259Z,97306.22
2023-01-11T11:34:55.581Z,97315.81
2023-01-11T11:39:57.909Z,97310.09
2023-01-11T11:45:08.837Z,97314.38
2023-01-11T11:50:42.032Z,97290.59
2023-01-11T11:55:41.839Z,97285.44
2023-01-11T12:00:50.181Z,97283.59
2023-01-11T12:06:00.788Z,97279.28
2023-01-11T12:11:06.474Z,97274.56
2023-01-11T12:16:33.976Z,97275.97
2023-01-11T12:21:36.473Z,97269.25
2023-01-11T12:27:05.004Z,97277.16
2023-01-11T12:32:15.955Z,97281.94
2023-01-11T12:37:45.077Z,97280.84
2023-01-11T12:42:55.154Z,97270.38
2023-01-11T12:48:15.167Z,97267.63
2023-01-11T12:53:16.930Z,97263.81
2023-01-11T12:58:59.554Z,97278.41
2023-01-11T13:04:23.180Z,97276.19
2023-01-11T13:09:45.262Z,97279.28
2023-01-11T13:15:24.303Z,97278.19
2023-01-11T13:20:48.698Z,97278.53
2023-01-11T13:25:58.258Z,97268.66
2023-01-11T13:31:04.096Z,97276.94
2023-01-11T13:36:23.645Z,97272.56
2023-01-11T13:41:52.033Z,97286.50
2023-01-11T13:47:11.595Z,97281.63
2023-01-11T13:52:16.766Z,97286.78
2023-01-11T13:57:53.828Z,97275.63
2023-01-11T14:03:34.454Z,97284.88
2023-01-11T14:08:36.520Z,97295.84
2023-01-11T14:14:13.567Z,97293.63
2023-01-11T14:19:41.485Z,97320.13
2023-01-11T14:24:58.284Z,97309.16
2023-01-11T14:30:21.402Z,97304.13
2023-01-11T14:35:41.571Z,97311.25
2023-01-11T14:40:56.844Z,97317.41
2023-01-11T14:46:04.563Z,97323.22
2023-01-11T14:51:23.956Z,97318.53
2023-01-11T14:56:42.155Z,97325.50
2023-01-11T15:02:14.286Z,97326.66
2023-01-11T15:07:35.434Z,97325.69
2023-01-11T15:12:38.570Z,97324.22
2023-01-11T15:18:00.312Z,97333.94
2023-01-11T15:23:06.125Z,97339.25
2023-01-11T15:28:46.848Z,97342.69
2023-01-11T15:33:50.248Z,97346.22
2023-01-11T15:39:05.790Z,97341.03
2023-01-11T15:44:35.332Z,97349.78
2023-01-11T15:49:55.419Z,97354.78
2023-01-11T15:55:22.406Z,97360.59
2023-01-11T16:00:45.320Z,97369.19
2023-01-11T16:06:21.034Z,97364.19
2023-01-11T16:11:33.966Z,97375.34
2023-01-11T16:16:41.584Z,97382.28
2023-01-11T16:21:47.555Z,97388.41
2023-01-11T16:26:55.763Z,97393.75
2023-01-11T16:32:07.969Z,97400.03
2023-01-11T16:37:31.488Z,97413.97
2023-01-11T16:42:39.101Z,97412.19
2023-01-11T16:47:40.911Z,97423.50
2023-01-11T16:52:45.707Z,97436.28
2023-01-11T16:57:52.665Z,97433.22
2023-01-11T17:03:05.740Z,97452.94
2023-01-11T17:08:34.955Z,97452.78
2023-01-11T17:14:12.142Z,97449.38
2023-01-11T17:19:18.686Z,97468.28
2023-01-11T17:24:26.404Z,97461.69
2023-01-11T17:29:41.027Z,97475.56
2023-01-11T17:34:43.548Z,97486.09
2023-01-11T17:39:49.978Z,97487.69
2023-01-11T17:45:12.134Z,97485.44
2023-01-11T17:50:22.071Z,97486.72
2023-01-11T17:55:27.176Z,97481.72
2023-01-11T18:00:30.034Z,97489.66
2023-01-11T18:05:32.109Z,97493.38
2023-01-11T18:10:39.295Z,97498.72
2023-01-11T18:15:47.261Z,97506.28
2023-01-11T18:20:49.149Z,97507.56
2023-01-11T18:26:24.823Z,97508.72
2023-01-11T18:31:26.712Z,97522.31
2023-01-11T18:36:30.242Z,97523.41
2023-01-11T18:41:50.582Z,97519.69
2023-01-11T18:46:52.407Z,97531.66
2023-01-11T18:51:54.207Z,97535.84
2023-01-11T18:56:55.992Z,97548.16
2023-01-11T19:02:16.357Z,97551.69
2023-01-11T19:07:18.749Z,97564.25
2023-01-11T19:12:21.013Z,97565.03
2023-01-11T19:17:22.817Z,97575.84
2023-01-11T19:22:26.615Z,97582.75
2023-01-11T19:27:29.000Z,97586.78
2023-01-11T19:32:30.852Z,97595.28
2023-01-11T19:37:34.126Z,97605.25
2023-01-11T19:42:36.814Z,97608.75
2023-01-11T19:47:40.033Z,97614.53
2023-01-11T19:52:41.808Z,97612.91
2023-01-11T19:57:44.331Z,97629.78
2023-01-11T20:02:46.239Z,97635.94
2023-01-11T20:07:48.335Z,97640.16
2023-01-11T20:12:50.141Z,97650.06
2023-01-11T20:17:51.938Z,97665.38
2023-01-11T20:22:53.715Z,97675.00
2023-01-11T20:27:55.681Z,97689.34
2023-01-11T20:32:58.826Z,97695.53
2023-01-11T20:38:00.602Z,97700.63
2023-01-11T20:43:02.415Z,97709.38
2023-01-11T20:48:04.315Z,97710.84
2023-01-11T20:53:06.203Z,97713.44
2023-01-11T20:58:08.084Z,97720.84
2023-01-11T21:03:09.936Z,97726.22
2023-01-11T21:08:11.729Z,97732.75
2023-01-11T21:13:13.568Z,97733.03
2023-01-11T21:18:15.556Z,97721.84
2023-01-11T21:23:17.353Z,97714.56
2023-01-11T21:28:19.167Z,97719.44
2023-01-11T21:33:22.377Z,97733.78
2023-01-11T21:38:24.180Z,97723.38
2023-01-11T21:43:25.965Z,97733.31
2023-01-11T21:48:28.192Z,97729.75
2023-01-11T21:53:32.054Z,97726.09
2023-01-11T21:58:35.068Z,97714.66
2023-01-11T22:03:37.279Z,97712.91
2023-01-11T22:08:41.848Z,97716.09
2023-01-11T22:13:44.902Z,97722.28
2023-01-11T22:18:46.979Z,97728.25
2023-01-11T22:23:53.695Z,97735.28
2023-01-11T22:29:15.403Z,97740.66
2023-01-11T22:34:18.259Z,97741.47
2023-01-11T22:39:20.532Z,97747.47
2023-01-11T22:44:22.373Z,97751.41
2023-01-11T22:49:24.164Z,97759.66
2023-01-11T22:54:25.932Z,97761.00
2023-01-11T22:59:28.054Z,97756.69
2023-01-11T23:04:29.861Z,97748.97
2023-01-11T23:09:31.710Z,97739.72
2023-01-11T23:14:33.796Z,97745.75
2023-01-11T23:19:37.627Z,97756.06
2023-01-11T23:24:39.949Z,97746.59
2023-01-11T23:29:41.735Z,97748.94
2023-01-11T23:34:43.587Z,97739.78
2023-01-11T23:39:45.379Z,97733.56
2023-01-11T23:44:47.298Z,97721.19
2023-01-11T23:49:51.418Z,97709.25
2023-01-11T23:54:53.716Z,97710.50
2023-01-11T23:59:55.540Z,97710.75
